Time;durP1;ratioP1;P1;durP2;ratioP2;P2;SDS_P1;SDS_P2;PMS_P1;PMS_P2;Temp;Humidity;BMP_temperature;BMP_pressure;BME280_temperature;BME280_humidity;BME280_pressure;Samples;Min_cycle;Max_cycle;Signal;HPM_P1;HPM_P2
2020/12/31 00:00:57;;;;;;;63.55;27.98;;;;;;;2.90;84.94;97951.38;2125634;84;21326;-95
2020/12/31 00:03:59;;;;;;;58.15;28.52;;;;;;;2.90;85.06;97954.45;2141530;83;21171;-96
2020/12/31 00:07:00;;;;;;;56.02;27.07;;;;;;;2.89;85.01;97951.05;2124966;84;21310;-92
2020/12/31 00:10:02;;;;;;;58.20;30.25;;;;;;;2.94;85.10;97950.63;2126785;84;21183;-93
2020/12/31 00:13:04;;;;;;;59.83;28.10;;;;;;;2.88;84.99;97948.14;2142500;83;21178;-94
2020/12/31 00:16:05;;;;;;;83.60;40.38;;;;;;;3.00;85.09;97959.05;2141659;83;21344;-96
2020/12/31 00:19:09;;;;;;;313.52;117.35;;;;;;;3.06;85.13;97961.86;2125312;83;21309;-96
2020/12/31 00:22:11;;;;;;;238.47;86.53;;;;;;;3.03;84.62;97955.70;2141430;83;21708;-96
2020/12/31 00:25:12;;;;;;;99.20;37.08;;;;;;;2.98;84.70;97955.33;2124824;84;21163;-96
2020/12/31 00:28:14;;;;;;;53.50;24.57;;;;;;;2.92;84.53;97937.81;2142072;82;21321;-93
2020/12/31 00:31:15;;;;;;;56.68;25.77;;;;;;;2.95;84.56;97947.07;2126888;84;21151;-93
2020/12/31 00:34:17;;;;;;;57.45;24.82;;;;;;;2.85;84.68;97936.33;2140677;82;21285;-95
2020/12/31 00:37:19;;;;;;;53.30;24.35;;;;;;;2.86;84.31;97952.66;2094638;85;21159;-96
2020/12/31 00:40:21;;;;;;;50.03;25.00;;;;;;;2.81;84.54;97954.86;2094541;85;21309;-96
2020/12/31 00:43:23;;;;;;;50.17;25.92;;;;;;;2.81;84.83;97954.38;2094520;85;21162;-96
2020/12/31 00:46:25;;;;;;;46.40;24.95;;;;;;;2.76;84.58;97958.39;2094013;85;21789;-94
2020/12/31 00:49:26;;;;;;;58.87;27.17;;;;;;;2.75;84.71;97956.29;2094440;85;21326;-96
2020/12/31 00:52:28;;;;;;;55.60;26.37;;;;;;;2.76;84.80;97957.91;2074979;85;21321;-96
2020/12/31 00:55:29;;;;;;;57.25;24.12;;;;;;;2.77;84.78;97958.23;2094885;85;21309;-95
2020/12/31 00:58:31;;;;;;;50.98;21.12;;;;;;;2.73;84.66;97961.25;2094313;85;21306;-94
2020/12/31 01:01:32;;;;;;;50.50;23.92;;;;;;;2.67;84.31;97960.09;2094809;85;21294;-95
2020/12/31 01:04:34;;;;;;;42.50;21.55;;;;;;;2.59;84.31;97964.38;2094822;85;21170;-95
2020/12/31 01:07:36;;;;;;;43.28;20.85;;;;;;;2.54;84.23;97970.77;2094351;85;21336;-96
2020/12/31 01:10:37;;;;;;;42.55;21.20;;;;;;;2.47;84.25;97972.80;2094551;85;21152;-95
2020/12/31 01:13:39;;;;;;;42.38;20.75;;;;;;;2.44;84.65;97970.52;2094583;85;21162;-95
2020/12/31 01:16:41;;;;;;;40.95;17.35;;;;;;;2.37;84.22;97983.67;2094392;85;21309;-95
2020/12/31 01:19:42;;;;;;;43.40;21.65;;;;;;;2.30;84.34;97983.95;2094688;85;21317;-95
2020/12/31 01:22:44;;;;;;;50.92;22.85;;;;;;;2.24;84.64;97983.55;2094528;85;21144;-96
2020/12/31 01:25:46;;;;;;;41.28;21.05;;;;;;;2.24;84.41;97995.17;2095056;85;21179;-95
2020/12/31 01:28:47;;;;;;;40.38;20.17;;;;;;;2.26;84.47;97998.42;2094448;85;21190;-96
2020/12/31 01:31:51;;;;;;;33.83;17.07;;;;;;;2.21;84.17;97989.50;2094562;85;21289;-96
2020/12/31 01:34:53;;;;;;;50.20;24.57;;;;;;;2.16;84.12;97992.98;2096959;83;21313;-95
2020/12/31 01:37:55;;;;;;;63.83;28.87;;;;;;;2.14;84.26;97997.00;2135469;83;21140;-95
2020/12/31 01:40:56;;;;;;;51.80;21.85;;;;;;;2.18;84.38;97996.22;2127719;84;21309;-96
2020/12/31 01:43:58;;;;;;;35.68;17.77;;;;;;;2.15;84.06;97997.81;2140180;83;21178;-96
2020/12/31 01:46:59;;;;;;;37.17;16.55;;;;;;;2.11;83.93;97994.72;2141854;83;21194;-95
2020/12/31 01:50:01;;;;;;;47.43;20.77;;;;;;;2.11;83.99;97993.91;2142480;83;21752;-95
2020/12/31 01:53:03;;;;;;;42.55;20.27;;;;;;;2.09;84.14;97994.50;2141885;83;21166;-95
2020/12/31 01:56:05;;;;;;;45.88;19.85;;;;;;;2.08;84.25;97994.98;2142029;82;21174;-96
2020/12/31 01:59:06;;;;;;;44.42;20.77;;;;;;;2.02;84.14;97997.34;2141730;83;21174;-95
2020/12/31 02:02:08;;;;;;;34.03;16.40;;;;;;;1.95;84.03;97991.45;2141874;83;21155;-95
2020/12/31 02:05:10;;;;;;;38.25;18.65;;;;;;;1.95;83.91;97997.09;2142064;83;21181;-95
2020/12/31 02:08:11;;;;;;;41.65;19.42;;;;;;;1.92;84.23;97993.48;2141816;83;21147;-95
2020/12/31 02:11:13;;;;;;;45.23;19.32;;;;;;;1.94;84.18;97993.70;2141886;83;21160;-96
2020/12/31 02:14:14;;;;;;;42.17;22.07;;;;;;;1.94;84.13;98005.80;2141978;83;21580;-96
2020/12/31 02:17:16;;;;;;;41.70;21.20;;;;;;;1.86;83.78;98003.92;2142197;83;21626;-96
2020/12/31 02:20:18;;;;;;;38.25;19.85;;;;;;;1.73;83.90;98009.05;2141735;83;21146;-95
2020/12/31 02:23:19;;;;;;;40.25;18.85;;;;;;;1.79;84.09;98014.95;2141809;83;21185;-96
2020/12/31 02:26:22;;;;;;;48.50;22.58;;;;;;;1.85;84.26;98021.66;2141871;83;21173;-96
2020/12/31 02:29:24;;;;;;;45.55;21.00;;;;;;;1.92;84.13;98016.72;2141876;83;21142;-95
2020/12/31 02:32:26;;;;;;;46.05;21.73;;;;;;;1.98;84.32;98013.58;2141738;83;21170;-95
2020/12/31 02:35:28;;;;;;;44.18;20.45;;;;;;;2.06;84.27;98013.69;2137965;82;21133;-95
2020/12/31 02:38:29;;;;;;;48.20;21.57;;;;;;;2.00;83.65;98012.47;2127145;84;21139;-96
2020/12/31 02:41:31;;;;;;;39.50;20.15;;;;;;;1.96;83.87;98023.25;2135981;83;21322;-96
2020/12/31 02:44:32;;;;;;;43.75;19.65;;;;;;;2.02;84.08;98035.59;2135787;83;21170;-95
2020/12/31 02:47:34;;;;;;;41.58;19.77;;;;;;;2.02;83.83;98030.91;2135722;83;21322;-95
2020/12/31 02:50:36;;;;;;;49.05;21.68;;;;;;;2.06;83.74;98040.80;2135818;83;21721;-95
2020/12/31 02:53:37;;;;;;;46.98;21.62;;;;;;;2.09;83.90;98040.98;2135682;83;21739;-96
2020/12/31 02:56:39;;;;;;;43.15;20.60;;;;;;;2.13;84.03;98039.28;2135792;83;21292;-95
2020/12/31 02:59:44;;;;;;;48.05;23.18;;;;;;;2.14;83.76;98031.87;2137700;83;21123;-92
2020/12/31 03:02:45;;;;;;;44.35;21.42;;;;;;;2.17;83.61;98034.16;2100475;85;21761;-94
2020/12/31 03:05:47;;;;;;;42.05;20.88;;;;;;;2.19;83.34;98035.30;2136034;83;21905;-95
2020/12/31 03:08:49;;;;;;;41.83;21.70;;;;;;;2.09;83.27;98034.05;2135695;83;21333;-94
2020/12/31 03:11:51;;;;;;;40.38;20.27;;;;;;;2.05;83.14;98037.89;2181195;81;21265;-96
2020/12/31 03:14:52;;;;;;;44.65;21.95;;;;;;;1.93;83.20;98039.03;2181039;81;21316;-95
2020/12/31 03:17:54;;;;;;;69.70;30.05;;;;;;;1.84;83.23;98032.13;2181076;81;21737;-96
2020/12/31 03:20:56;;;;;;;61.08;29.90;;;;;;;1.86;83.70;98040.06;2183283;82;21308;-92
2020/12/31 03:23:58;;;;;;;42.73;21.75;;;;;;;1.84;83.70;98040.69;2183118;82;21313;-94
2020/12/31 03:27:00;;;;;;;38.25;19.35;;;;;;;1.85;83.50;98042.31;2181674;81;21326;-94
2020/12/31 03:30:01;;;;;;;43.15;20.32;;;;;;;1.89;83.42;98050.58;2180770;81;21182;-95
2020/12/31 03:33:03;;;;;;;43.33;21.20;;;;;;;1.85;83.43;98051.34;2180751;82;21316;-96
2020/12/31 03:36:05;;;;;;;40.48;20.35;;;;;;;1.78;83.56;98050.27;2180053;80;21702;-96
2020/12/31 03:39:07;;;;;;;69.53;33.80;;;;;;;1.82;83.36;98055.95;2180820;82;21293;-95
2020/12/31 03:42:08;;;;;;;48.63;23.77;;;;;;;1.71;83.40;98052.59;2180891;81;21150;-94
2020/12/31 03:45:10;;;;;;;43.33;20.48;;;;;;;1.66;83.33;98057.85;2180955;82;21297;-95
2020/12/31 03:48:11;;;;;;;38.00;20.10;;;;;;;1.64;83.06;98060.55;2181065;82;21301;-96
2020/12/31 03:51:13;;;;;;;36.13;18.27;;;;;;;1.55;83.37;98078.63;2181056;81;21328;-95
2020/12/31 03:54:15;;;;;;;36.63;18.02;;;;;;;1.49;83.30;98078.72;2180794;82;21292;-96
2020/12/31 03:57:16;;;;;;;44.40;20.70;;;;;;;1.39;83.21;98080.50;2180990;81;21288;-96
2020/12/31 04:00:19;;;;;;;46.35;21.95;;;;;;;;;;2181238;81;21253;-95
2020/12/31 04:03:21;;;;;;;39.63;20.20;;;;;;;1.34;83.41;98069.28;2181211;81;21716;-95
2020/12/31 04:06:22;;;;;;;39.70;21.35;;;;;;;1.36;83.63;98075.12;2180617;82;21647;-95
2020/12/31 04:09:24;;;;;;;43.00;20.70;;;;;;;1.47;83.63;98079.81;2180774;82;21289;-95
2020/12/31 04:12:26;;;;;;;42.55;21.33;;;;;;;1.50;83.45;98079.53;2180736;82;21285;-96
2020/12/31 04:15:31;;;;;;;43.08;20.52;;;;;;;1.52;83.44;98080.20;2181103;81;21280;-95
2020/12/31 04:18:33;;;;;;;43.20;20.23;;;;;;;1.52;83.42;98079.72;2181407;82;21257;-95
2020/12/31 04:21:34;;;;;;;43.42;21.10;;;;;;;1.51;83.10;98074.23;2181011;82;21578;-94
2020/12/31 04:24:36;;;;;;;36.93;18.87;;;;;;;1.51;83.08;98073.42;2180983;82;21305;-95
2020/12/31 04:27:37;;;;;;;40.80;19.85;;;;;;;1.39;82.56;98078.73;2180883;81;21282;-95
2020/12/31 04:30:40;;;;;;;42.95;20.27;;;;;;;1.31;82.84;98076.02;2181369;82;21151;-95
2020/12/31 04:33:41;;;;;;;46.37;20.62;;;;;;;1.27;82.82;98071.25;2181089;82;21280;-94
2020/12/31 04:36:43;;;;;;;41.13;20.52;;;;;;;1.24;82.95;98071.53;2171425;81;22210;-94
2020/12/31 04:39:45;;;;;;;37.78;18.70;;;;;;;1.18;83.01;98065.14;2160685;82;21301;-95
2020/12/31 04:42:46;;;;;;;36.00;18.82;;;;;;;1.19;82.85;98068.09;2139681;82;21234;-95
2020/12/31 04:45:49;;;;;;;37.13;19.20;;;;;;;1.22;82.95;98074.26;2160506;82;21710;-96
2020/12/31 04:48:55;;;;;;;46.25;20.08;;;;;;;1.14;83.02;98074.12;2160519;82;21283;-95
2020/12/31 04:51:56;;;;;;;35.08;18.35;;;;;;;1.20;83.35;98069.72;2160450;82;21339;-96
2020/12/31 04:54:58;;;;;;;37.00;19.15;;;;;;;1.12;82.89;98078.13;2160358;82;21289;-96
2020/12/31 04:57:59;;;;;;;41.45;22.60;;;;;;;0.98;82.75;98091.40;2160470;82;21301;-95
2020/12/31 05:01:01;;;;;;;40.45;21.70;;;;;;;0.96;82.81;98096.36;2160436;82;21290;-95
2020/12/31 05:04:02;;;;;;;40.43;20.82;;;;;;;0.98;83.11;98112.02;2160479;82;21293;-95
2020/12/31 05:07:04;;;;;;;37.90;19.23;;;;;;;1.01;83.16;98110.97;2160443;82;21345;-94
2020/12/31 05:10:06;;;;;;;39.80;17.92;;;;;;;0.98;83.11;98104.29;2160726;82;21317;-94
2020/12/31 05:13:08;;;;;;;31.75;17.73;;;;;;;0.99;82.88;98104.63;2160517;82;21209;-95
2020/12/31 05:16:09;;;;;;;30.50;16.95;;;;;;;0.95;82.55;98099.89;2160565;82;21135;-95
2020/12/31 05:19:11;;;;;;;30.90;15.03;;;;;;;0.93;82.71;98108.23;2160367;82;21310;-92
2020/12/31 05:22:12;;;;;;;37.48;19.50;;;;;;;0.80;82.01;98107.98;2160365;82;21293;-93
2020/12/31 05:25:14;;;;;;;36.50;18.82;;;;;;;0.56;82.13;98126.39;2160255;82;21159;-94
2020/12/31 05:28:16;;;;;;;38.42;19.98;;;;;;;0.53;82.72;98129.68;2160304;82;21627;-93
2020/12/31 05:31:18;;;;;;;45.45;24.23;;;;;;;0.53;83.27;98116.33;2159935;82;21424;-94
2020/12/31 05:34:19;;;;;;;40.58;21.50;;;;;;;0.56;82.66;98112.70;2160136;82;21631;-93
2020/12/31 05:37:21;;;;;;;41.13;22.48;;;;;;;0.54;82.77;98122.29;2160134;82;21279;-93
2020/12/31 05:40:22;;;;;;;51.10;24.50;;;;;;;0.63;83.31;98118.12;2160241;82;21309;-93
2020/12/31 05:43:27;;;;;;;51.85;26.33;;;;;;;0.69;83.36;98115.84;2143541;82;21297;-94
2020/12/31 05:46:29;;;;;;;52.15;27.62;;;;;;;0.64;83.16;98130.05;2160263;82;21281;-93
2020/12/31 05:49:31;;;;;;;52.33;27.42;;;;;;;0.68;83.33;98129.67;2161777;82;21289;-88
2020/12/31 05:52:33;;;;;;;58.65;28.92;;;;;;;0.71;83.49;98125.53;2162305;82;21618;-91
2020/12/31 05:55:35;;;;;;;59.20;28.73;;;;;;;0.62;83.17;98110.86;2161042;82;21695;-93
2020/12/31 05:58:36;;;;;;;56.85;27.17;;;;;;;0.55;82.97;98109.78;2160091;82;21159;-94
2020/12/31 06:01:38;;;;;;;60.05;32.53;;;;;;;0.49;83.20;98112.87;2160321;82;21285;-93
2020/12/31 06:04:40;;;;;;;69.58;35.92;;;;;;;0.43;83.47;98115.95;2160216;82;21159;-93
2020/12/31 06:07:44;;;;;;;53.58;28.73;;;;;;;0.41;83.16;98117.85;2160420;82;21313;-93
2020/12/31 06:10:45;;;;;;;53.35;29.10;;;;;;;0.40;83.38;98124.77;2162130;82;21313;-90
2020/12/31 06:13:47;;;;;;;73.92;33.78;;;;;;;0.37;83.33;98122.45;2162023;82;21297;-93
2020/12/31 06:16:52;;;;;;;41.92;23.92;;;;;;;0.32;83.04;98123.78;2160675;82;21305;-94
2020/12/31 06:19:53;;;;;;;32.60;16.85;;;;;;;0.14;82.75;98128.71;2160257;82;21310;-95
2020/12/31 06:22:55;;;;;;;39.08;21.50;;;;;;;0.06;82.96;98113.09;2160365;82;21270;-93
2020/12/31 06:25:57;;;;;;;38.42;22.45;;;;;;;-0.05;83.22;98114.80;2160396;82;21750;-94
2020/12/31 06:28:58;;;;;;;45.23;24.20;;;;;;;-0.12;83.24;98114.95;2160415;82;21305;-94
2020/12/31 06:32:00;;;;;;;43.17;22.82;;;;;;;-0.22;83.50;98122.27;2160332;82;21753;-93
2020/12/31 06:35:01;;;;;;;46.77;26.30;;;;;;;-0.26;83.56;98117.86;2160745;82;21582;-93
2020/12/31 06:38:03;;;;;;;45.20;27.58;;;;;;;-0.22;83.79;98120.52;2163012;81;21322;-93
2020/12/31 06:41:05;;;;;;;60.60;30.85;;;;;;;-0.04;84.41;98124.63;2163567;82;21277;-94
2020/12/31 06:44:06;;;;;;;60.90;29.05;;;;;;;0.13;84.38;98132.23;2166095;81;21159;-94
2020/12/31 06:47:08;;;;;;;40.75;22.65;;;;;;;0.19;83.98;98125.30;2183813;81;21733;-92
2020/12/31 06:50:09;;;;;;;53.58;26.55;;;;;;;0.12;83.60;98121.59;2183610;81;21289;-93
2020/12/31 06:53:11;;;;;;;50.88;24.47;;;;;;;0.15;84.26;98120.86;2183583;81;21182;-93
2020/12/31 06:56:13;;;;;;;40.23;22.37;;;;;;;0.21;83.76;98125.50;2183516;81;21301;-93
2020/12/31 06:59:14;;;;;;;35.25;18.75;;;;;;;0.23;83.70;98126.66;2183461;81;21107;-93
2020/12/31 07:02:16;;;;;;;50.98;23.70;;;;;;;0.27;83.82;98126.28;2183483;81;21143;-93
2020/12/31 07:05:17;;;;;;;50.58;25.05;;;;;;;0.26;83.98;98131.54;2183437;81;21736;-94
2020/12/31 07:08:19;;;;;;;48.02;25.02;;;;;;;0.27;84.03;98137.88;2183767;81;21294;-94
2020/12/31 07:11:23;;;;;;;45.98;22.52;;;;;;;0.37;84.10;98128.09;2183852;81;21280;-93
2020/12/31 07:14:25;;;;;;;42.08;22.00;;;;;;;0.46;84.17;98128.59;2183500;81;21300;-94
2020/12/31 07:17:28;;;;;;;38.33;20.68;;;;;;;0.58;83.94;98133.98;2183382;80;21304;-95
2020/12/31 07:20:29;;;;;;;49.05;28.90;;;;;;;0.68;83.89;98141.27;2183727;81;21305;-94
2020/12/31 07:23:31;;;;;;;47.53;23.35;;;;;;;0.77;83.63;98139.19;2183494;81;21304;-93
2020/12/31 07:26:33;;;;;;;44.73;23.22;;;;;;;0.77;83.63;98134.52;2183953;81;21733;-93
2020/12/31 07:29:34;;;;;;;37.42;20.15;;;;;;;0.75;83.20;98135.94;2183563;81;21757;-95
2020/12/31 07:32:36;;;;;;;41.83;21.97;;;;;;;0.85;83.29;98141.12;2183573;81;21168;-93
2020/12/31 07:35:37;;;;;;;37.25;20.10;;;;;;;0.95;83.24;98139.84;2183842;81;21309;-96
2020/12/31 07:42:35;;;;;;;39.33;21.70;;;;;;;1.06;83.13;98135.38;2099055;85;21162;-94
2020/12/31 07:56:13;;;;;;;43.60;22.50;;;;;;;1.13;82.88;98144.22;2073551;85;21316;-95
2020/12/31 07:59:35;;;;;;;51.18;27.52;;;;;;;1.16;82.49;98147.00;2096886;85;21725;-93
2020/12/31 08:02:47;;;;;;;51.65;28.12;;;;;;;1.25;82.69;98147.48;2097601;85;21182;-95
2020/12/31 08:05:50;;;;;;;48.02;24.07;;;;;;;1.26;82.12;98150.39;2071998;82;21338;-93
2020/12/31 08:12:46;;;;;;;;;;;;;;;;;;;;;
2020/12/31 08:16:03;;;;;;;47.48;24.05;;;;;;;1.46;82.50;98151.69;1966718;90;21415;-94
2020/12/31 08:26:04;;;;;;;40.43;22.40;;;;;;;1.81;81.90;98148.08;2035908;87;21287;-95
2020/12/31 08:32:55;;;;;;;58.00;29.52;;;;;;;2.10;81.14;98138.17;2036785;87;21288;-90
2020/12/31 08:35:57;;;;;;;65.60;36.05;;;;;;;2.18;81.58;98138.28;2036368;87;21969;-96
2020/12/31 08:50:07;;;;;;;115.50;57.10;;;;;;;1.85;81.09;98145.58;2047836;87;21373;-95
2020/12/31 08:53:11;;;;;;;112.70;54.98;;;;;;;1.87;80.77;98151.89;2026179;87;21301;-96
2020/12/31 08:56:27;;;;;;;127.17;58.33;;;;;;;1.85;80.65;98147.34;2026675;87;21340;-96
2020/12/31 09:02:41;;;;;;;115.97;57.25;;;;;;;1.77;80.84;98153.19;2146293;77;21281;-96
2020/12/31 09:16:41;;;;;;;;;;;;;;;1.98;81.25;98167.22;2023007;88;21212;-96
2020/12/31 09:23:37;;;;;;;79.65;43.23;;;;;;;2.15;81.01;98166.51;1924249;90;21176;-96
2020/12/31 09:26:40;;;;;;;65.67;35.95;;;;;;;2.10;80.61;98180.78;1954286;90;21156;-96
2020/12/31 09:29:42;;;;;;;83.75;44.27;;;;;;;2.06;80.79;98184.61;1974608;89;21208;-92
2020/12/31 09:32:51;;;;;;;92.72;47.83;;;;;;;1.98;80.73;98187.40;1942022;92;21231;-93
2020/12/31 09:35:54;;;;;;;84.72;44.88;;;;;;;1.94;81.04;98187.35;1948638;91;21217;-90
2020/12/31 09:38:56;;;;;;;102.12;49.30;;;;;;;1.90;81.24;98186.45;1958147;89;21232;-91
2020/12/31 09:41:58;;;;;;;63.85;33.78;;;;;;;1.89;81.34;98189.99;2003185;89;21264;-93
2020/12/31 09:45:00;;;;;;;63.55;34.00;;;;;;;1.78;81.20;98188.85;2032283;87;21232;-94
2020/12/31 09:48:03;;;;;;;49.98;27.93;;;;;;;1.78;81.48;98187.56;2066116;86;21568;-92
2020/12/31 09:51:04;;;;;;;48.92;25.77;;;;;;;1.86;81.67;98183.34;2066005;86;21215;-92
2020/12/31 09:54:06;;;;;;;53.73;23.40;;;;;;;1.93;81.64;98180.56;2066601;86;21223;-94
2020/12/31 09:57:08;;;;;;;47.50;25.25;;;;;;;1.92;81.17;98180.22;2065896;86;21225;-92
2020/12/31 10:00:09;;;;;;;43.52;24.50;;;;;;;1.92;81.52;98175.06;2135478;81;21190;-92
2020/12/31 10:03:11;;;;;;;45.95;24.85;;;;;;;1.93;81.47;98182.33;2194245;81;21749;-94
2020/12/31 10:06:12;;;;;;;43.87;24.45;;;;;;;1.94;81.42;98178.31;2183804;81;21170;-93
2020/12/31 10:09:18;;;;;;;49.90;27.52;;;;;;;1.96;81.58;98182.05;2181866;82;21289;-95
2020/12/31 10:12:24;;;;;;;55.08;28.40;;;;;;;1.97;81.82;98181.91;2178659;82;21274;-93
2020/12/31 10:15:29;;;;;;;54.77;28.27;;;;;;;2.12;82.16;98182.30;2182155;82;21750;-96
2020/12/31 10:18:37;;;;;;;52.80;28.57;;;;;;;2.26;82.04;98184.90;2182508;81;21143;-94
2020/12/31 10:21:40;;;;;;;56.85;27.98;;;;;;;2.33;81.81;98180.00;2183078;80;21630;-96
2020/12/31 10:24:57;;;;;;;;;;;;;;;;;;;;;
2020/12/31 10:27:55;;;;;;;57.98;29.92;;;;;;;2.46;81.65;98180.01;2181450;81;21266;-95
2020/12/31 10:31:01;;;;;;;51.10;27.22;;;;;;;2.50;81.58;98172.80;2181777;82;21154;-94
2020/12/31 10:45:13;;;;;;;51.40;28.42;;;;;;;2.61;80.99;98153.23;2029759;88;21180;-95
2020/12/31 10:52:03;;;;;;;43.50;25.40;;;;;;;2.99;80.74;98143.65;1960227;90;21228;-95
2020/12/31 10:55:09;;;;;;;46.90;25.80;;;;;;;3.04;80.46;98135.80;1964843;91;21231;-95
2020/12/31 11:01:36;;;;;;;55.95;28.75;;;;;;;3.20;80.50;98139.48;2042667;86;21678;-93
2020/12/31 11:04:43;;;;;;;52.23;28.73;;;;;;;3.29;80.18;98136.02;2060974;85;21325;-93
2020/12/31 11:07:48;;;;;;;42.60;24.40;;;;;;;3.41;80.06;98121.92;2020786;87;21200;-92
2020/12/31 11:10:52;;;;;;;59.15;31.00;;;;;;;3.53;79.66;98122.50;2113765;83;21219;-93
2020/12/31 11:14:00;;;;;;;44.60;27.02;;;;;;;3.50;79.62;98118.44;2089715;83;21164;-92
2020/12/31 11:17:02;;;;;;;54.42;30.37;;;;;;;3.61;79.66;98108.33;2137943;83;21180;-92
2020/12/31 11:20:12;;;;;;;58.30;31.48;;;;;;;3.57;79.64;98105.72;2176916;80;21144;-92
2020/12/31 11:23:17;;;;;;;58.55;31.50;;;;;;;3.65;79.84;98109.16;2196874;80;21263;-94
2020/12/31 11:26:19;;;;;;;63.20;32.23;;;;;;;3.58;79.87;98109.94;2224467;80;21173;-95
2020/12/31 11:29:24;;;;;;;60.67;31.35;;;;;;;3.58;79.83;98104.27;2224528;80;21879;-92
2020/12/31 11:32:27;;;;;;;52.05;29.82;;;;;;;3.57;79.30;98097.47;2225812;79;21157;-93
2020/12/31 11:35:32;;;;;;;67.82;35.98;;;;;;;3.35;78.92;98093.55;2225535;79;21148;-96
2020/12/31 11:38:49;;;;;;;73.12;37.53;;;;;;;3.35;79.71;98097.44;2224335;80;21161;-92
2020/12/31 11:41:55;;;;;;;66.90;34.58;;;;;;;3.46;80.12;98090.40;2225277;80;21647;-94
2020/12/31 11:44:58;;;;;;;65.62;34.00;;;;;;;3.57;80.02;98094.07;2225334;80;21287;-96
2020/12/31 11:48:02;;;;;;;76.40;39.03;;;;;;;3.65;79.49;98089.73;2225559;80;21156;-96
2020/12/31 11:51:09;;;;;;;57.50;32.78;;;;;;;3.58;79.56;98084.86;2226931;79;21168;-95
2020/12/31 11:54:23;;;;;;;60.73;32.70;;;;;;;3.58;79.12;98084.86;2226503;80;21259;-92
2020/12/31 11:57:25;;;;;;;41.05;23.12;;;;;;;3.57;79.15;98084.53;2224789;80;21140;-96
2020/12/31 12:00:28;;;;;;;54.13;30.70;;;;;;;3.45;78.67;98070.66;2224296;80;21152;-95
2020/12/31 12:07:19;;;;;;;45.08;27.30;;;;;;;3.36;79.21;98058.13;2109043;83;21182;-95
2020/12/31 12:10:27;;;;;;;76.25;39.27;;;;;;;3.33;79.10;98062.33;2109027;83;21198;-91
2020/12/31 12:17:11;;;;;;;51.15;26.25;;;;;;;3.20;79.59;98054.95;2060321;85;22197;-95
2020/12/31 12:20:16;;;;;;;52.35;30.25;;;;;;;3.13;79.63;98049.55;2098842;85;21322;-94
2020/12/31 12:23:17;;;;;;;48.63;26.55;;;;;;;2.96;79.28;98052.14;2099163;85;22662;-96
2020/12/31 12:26:19;;;;;;;64.67;34.00;;;;;;;2.68;79.32;98059.13;2098908;85;21368;-94
2020/12/31 12:29:20;;;;;;;70.90;38.85;;;;;;;2.49;79.58;98058.28;2098475;85;21772;-94
2020/12/31 12:32:23;;;;;;;64.60;34.40;;;;;;;2.52;80.22;98060.57;2098628;85;21345;-92
2020/12/31 12:35:30;;;;;;;74.55;37.15;;;;;;;2.70;80.59;98055.44;2098840;85;21278;-92
2020/12/31 12:38:37;;;;;;;42.85;23.20;;;;;;;2.85;80.77;98055.28;2200857;79;21338;-96
2020/12/31 12:41:42;;;;;;;52.30;25.77;;;;;;;2.92;80.25;98058.55;2224759;79;21696;-94
2020/12/31 12:44:44;;;;;;;71.40;34.10;;;;;;;2.81;80.18;98063.45;2241301;79;21624;-94
2020/12/31 12:47:45;;;;;;;55.90;28.90;;;;;;;2.87;80.68;98058.19;2241561;79;21722;-94
2020/12/31 12:50:48;;;;;;;51.50;27.85;;;;;;;2.90;80.35;98058.70;2242287;79;21263;-91
2020/12/31 12:53:52;;;;;;;50.78;26.70;;;;;;;2.95;80.67;98057.80;2242791;79;21117;-96
2020/12/31 12:56:54;;;;;;;70.17;36.53;;;;;;;2.92;80.51;98059.84;2241727;79;21161;-94
2020/12/31 12:59:56;;;;;;;70.80;34.03;;;;;;;2.88;80.60;98061.92;2241539;79;21295;-92
2020/12/31 13:02:58;;;;;;;50.40;25.95;;;;;;;2.90;80.77;98066.94;2242691;79;21287;-93
2020/12/31 13:06:00;;;;;;;51.28;27.77;;;;;;;2.83;80.46;98066.70;2242654;79;21632;-93
2020/12/31 13:09:02;;;;;;;37.40;20.95;;;;;;;2.76;80.64;98071.66;2243640;79;21672;-93
2020/12/31 13:12:04;;;;;;;47.80;25.48;;;;;;;2.72;80.40;98069.02;2242099;79;21176;-95
2020/12/31 13:15:06;;;;;;;51.55;25.02;;;;;;;2.65;80.88;98073.17;2243432;78;21268;-93
2020/12/31 13:18:07;;;;;;;44.10;22.67;;;;;;;2.59;80.76;98069.05;2245429;79;21259;-94
2020/12/31 13:21:09;;;;;;;32.67;19.05;;;;;;;2.42;80.58;98070.14;2244534;79;21138;-91
2020/12/31 13:24:10;;;;;;;41.95;23.05;;;;;;;2.39;81.09;98076.91;2244641;79;21133;-91
2020/12/31 13:27:16;;;;;;;34.50;20.23;;;;;;;2.25;81.20;98077.36;2244996;79;21720;-92
2020/12/31 13:30:24;;;;;;;39.75;20.48;;;;;;;2.19;80.96;98077.44;2244333;79;21295;-93
2020/12/31 13:33:25;;;;;;;37.88;20.00;;;;;;;2.18;81.30;98079.69;2235786;79;21118;-91
2020/12/31 13:36:26;;;;;;;37.25;19.95;;;;;;;2.15;81.35;98082.56;2244077;79;21140;-89
2020/12/31 13:39:28;;;;;;;37.13;19.70;;;;;;;2.08;81.34;98074.23;2244222;79;21303;-90
2020/12/31 13:42:30;;;;;;;34.73;19.98;;;;;;;2.11;81.72;98072.67;2243955;79;21307;-90
2020/12/31 13:48:57;;;;;;;38.40;21.75;;;;;;;2.00;81.66;98073.16;2231188;79;21141;-90
2020/12/31 13:52:05;;;;;;;38.58;19.07;;;;;;;2.11;81.92;98076.55;2243852;79;21291;-90
2020/12/31 13:55:10;;;;;;;33.38;19.40;;;;;;;2.12;82.02;98075.59;2244112;79;21114;-90
2020/12/31 13:58:12;;;;;;;31.17;18.48;;;;;;;2.16;82.02;98074.34;2244093;79;21609;-91
2020/12/31 14:01:17;;;;;;;44.98;20.92;;;;;;;2.10;81.91;98074.89;2243711;79;21319;-90
2020/12/31 14:04:23;;;;;;;40.92;20.85;;;;;;;2.03;81.82;98079.02;2243827;79;21253;-90
2020/12/31 14:07:24;;;;;;;38.95;21.70;;;;;;;2.02;82.00;98074.81;2243418;79;21230;-91
2020/12/31 14:10:51;;;;;;;31.45;17.92;;;;;;;2.01;82.23;98073.97;2243365;79;21105;-91
2020/12/31 14:14:01;;;;;;;39.70;20.75;;;;;;;2.09;82.29;98072.79;2242491;79;21259;-90
2020/12/31 14:17:03;;;;;;;34.43;19.40;;;;;;;2.07;82.26;98075.19;2233806;80;21145;-90
2020/12/31 14:20:07;;;;;;;47.00;23.67;;;;;;;1.92;82.01;98074.81;2234522;79;21287;-90
2020/12/31 14:23:08;;;;;;;46.75;23.42;;;;;;;1.85;82.24;98073.77;2234317;79;21300;-89
2020/12/31 14:26:10;;;;;;;44.48;22.70;;;;;;;1.83;82.43;98079.52;2234227;79;21177;-91
2020/12/31 14:29:14;;;;;;;38.73;20.68;;;;;;;1.74;82.66;98077.33;2234059;79;21307;-91
2020/12/31 14:32:16;;;;;;;50.60;25.72;;;;;;;1.75;83.15;98075.08;2233945;79;21319;-89
2020/12/31 14:35:17;;;;;;;53.95;27.73;;;;;;;1.62;82.96;98078.42;2234133;79;21188;-92
2020/12/31 14:38:23;;;;;;;50.83;26.65;;;;;;;1.66;83.09;98074.63;2234197;79;21260;-91
2020/12/31 14:41:25;;;;;;;54.08;24.72;;;;;;;1.77;83.10;98082.69;2234292;80;21129;-92
2020/12/31 14:44:27;;;;;;;52.93;27.15;;;;;;;1.77;82.79;98086.55;2234537;79;21720;-91
2020/12/31 14:47:28;;;;;;;60.12;29.20;;;;;;;1.82;83.26;98086.94;2234181;80;21276;-90
2020/12/31 14:50:30;;;;;;;67.10;29.82;;;;;;;1.92;83.16;98089.86;2234115;80;21185;-90
2020/12/31 14:53:32;;;;;;;60.12;27.75;;;;;;;2.02;83.09;98087.24;2234474;79;21335;-91
2020/12/31 14:56:33;;;;;;;63.08;27.77;;;;;;;2.08;82.90;98083.27;2234274;79;21691;-92
2020/12/31 14:59:35;;;;;;;61.25;30.60;;;;;;;2.10;82.55;98087.33;2234703;80;21157;-91
2020/12/31 15:02:37;;;;;;;66.47;29.75;;;;;;;2.06;82.54;98078.73;2234460;79;21149;-91
2020/12/31 15:05:39;;;;;;;79.60;34.03;;;;;;;1.97;82.48;98081.67;2234428;79;21285;-89
2020/12/31 15:08:40;;;;;;;83.30;38.02;;;;;;;1.94;83.04;98086.65;2234180;79;21149;-91
2020/12/31 15:11:42;;;;;;;85.53;34.40;;;;;;;1.92;82.74;98086.43;2234613;79;21157;-91
2020/12/31 15:14:45;;;;;;;77.30;32.73;;;;;;;1.79;82.75;98080.30;2234547;79;21312;-92
2020/12/31 15:17:47;;;;;;;113.35;45.48;;;;;;;1.80;83.12;98086.27;2234612;79;21292;-91
2020/12/31 15:20:48;;;;;;;106.67;45.75;;;;;;;1.73;82.68;98076.97;2234577;79;21106;-91
2020/12/31 15:23:50;;;;;;;107.43;40.10;;;;;;;1.67;82.86;98070.61;2234039;79;21260;-91
2020/12/31 15:26:54;;;;;;;94.42;37.98;;;;;;;1.59;82.96;98077.42;2234128;79;21758;-90
2020/12/31 15:29:56;;;;;;;101.87;38.58;;;;;;;1.55;83.07;98072.98;2234297;79;21763;-91
2020/12/31 15:32:59;;;;;;;127.02;43.45;;;;;;;1.63;83.49;98077.46;2234346;79;21704;-91
2020/12/31 15:36:00;;;;;;;123.85;43.90;;;;;;;1.75;83.47;98071.21;2234391;80;21260;-91
2020/12/31 15:39:02;;;;;;;118.55;46.73;;;;;;;1.66;82.93;98078.50;2234184;80;21137;-90